createdAt,value
2023-12-12T00:47:59.847Z,957.97
2023-12-12T02:43:37.539Z,957.63
2023-12-12T02:48:39.409Z,957.64
2023-12-12T02:53:41.300Z,957.67
2023-12-12T02:58:42.857Z,957.54
2023-12-12T03:03:45.053Z,957.53
2023-12-12T03:08:47.065Z,957.57
2023-12-12T03:13:48.839Z,957.63
2023-12-12T03:18:51.040Z,957.49
2023-12-12T03:23:52.420Z,957.45
2023-12-12T03:28:54.325Z,957.42
2023-12-12T03:33:55.812Z,957.48
2023-12-12T03:38:57.081Z,957.51
2023-12-12T03:43:59.058Z,957.54
2023-12-12T03:49:00.829Z,957.44
2023-12-12T03:54:02.062Z,957.47
2023-12-12T03:59:03.568Z,957.55
2023-12-12T04:04:05.787Z,957.48
2023-12-12T04:09:07.397Z,957.5
2023-12-12T04:14:09.394Z,957.35
2023-12-12T04:19:10.737Z,957.26
2023-12-12T04:24:12.455Z,957.21
2023-12-12T04:29:14.137Z,957.18
2023-12-12T04:34:16.334Z,957.34
2023-12-12T04:39:18.333Z,957.34
2023-12-12T04:44:19.865Z,957.24
2023-12-12T04:49:22.144Z,957.16
2023-12-12T04:54:24.120Z,957.35
2023-12-12T04:59:25.774Z,957.32
2023-12-12T05:04:27.745Z,957.29
2023-12-12T05:09:29.379Z,957.27
2023-12-12T05:14:30.721Z,957.26
2023-12-12T05:19:32.665Z,957.22
2023-12-12T05:24:33.741Z,957.12
2023-12-12T05:29:35.032Z,957.1
2023-12-12T05:34:37.038Z,957.11
2023-12-12T05:39:38.873Z,957.14
2023-12-12T05:44:40.057Z,957.11
2023-12-12T05:49:42.056Z,957.15
2023-12-12T05:54:43.393Z,957.04
2023-12-12T05:59:45.115Z,956.95
2023-12-12T06:04:47.445Z,956.97
2023-12-12T06:09:49.435Z,956.97
2023-12-12T06:14:50.933Z,957.08
2023-12-12T06:19:53.018Z,957.02
2023-12-12T06:24:54.414Z,957.09
2023-12-12T06:29:55.963Z,957.05
2023-12-12T06:34:57.815Z,956.93
2023-12-12T06:39:59.809Z,956.94
2023-12-12T06:45:01.112Z,956.81
2023-12-12T06:50:02.455Z,956.78
2023-12-12T06:55:10.134Z,956.72
2023-12-12T07:00:11.927Z,956.61
2023-12-12T07:05:13.847Z,956.73
2023-12-12T07:10:15.713Z,956.81
2023-12-12T07:15:17.115Z,956.79
2023-12-12T07:20:18.661Z,956.68
2023-12-12T07:25:19.941Z,956.74
2023-12-12T07:30:21.126Z,956.68
2023-12-12T07:35:22.754Z,956.68
2023-12-12T07:40:24.511Z,956.67
2023-12-12T07:45:26.187Z,956.55
2023-12-12T07:50:28.284Z,956.58
2023-12-12T07:55:29.796Z,956.57
2023-12-12T08:00:31.851Z,956.59
2023-12-12T08:05:33.987Z,956.52
2023-12-12T08:10:35.233Z,956.53
2023-12-12T08:15:36.639Z,956.49
2023-12-12T08:20:38.318Z,956.71
2023-12-12T08:25:39.849Z,956.78
2023-12-12T08:30:41.187Z,956.85
2023-12-12T08:35:43.275Z,956.79
2023-12-12T08:40:45.335Z,956.74
2023-12-12T08:45:46.710Z,956.75
2023-12-12T08:50:48.440Z,956.61
2023-12-12T08:55:50.249Z,956.65
2023-12-12T09:00:52.098Z,956.71
2023-12-12T09:05:53.521Z,956.58
2023-12-12T09:10:55.197Z,956.48
2023-12-12T09:15:56.851Z,956.45
2023-12-12T09:20:58.451Z,956.46
2023-12-12T09:26:00.456Z,956.48
2023-12-12T09:31:02.269Z,956.34
2023-12-12T09:36:03.697Z,956.22
2023-12-12T09:41:05.370Z,956.1
2023-12-12T09:46:07.379Z,955.96
2023-12-12T09:51:09.392Z,955.83
2023-12-12T09:56:10.965Z,955.72
2023-12-12T10:01:12.960Z,955.63
2023-12-12T10:06:14.175Z,955.6
2023-12-12T10:11:16.328Z,955.45
2023-12-12T10:16:18.056Z,955.45
2023-12-12T10:21:19.987Z,955.36
2023-12-12T10:26:21.850Z,955.25
2023-12-12T10:31:23.306Z,955.1
2023-12-12T10:36:24.877Z,955.24
2023-12-12T10:41:27.155Z,955.2
2023-12-12T10:46:27.890Z,955.22
2023-12-12T10:51:29.504Z,955.3
2023-12-12T10:56:31.215Z,955.17
2023-12-12T11:01:33.427Z,955.08
2023-12-12T11:06:34.846Z,955.18
2023-12-12T11:11:36.257Z,955.16
2023-12-12T11:16:38.055Z,954.97
2023-12-12T11:21:40.081Z,954.92
2023-12-12T11:26:41.892Z,954.9
2023-12-12T11:31:43.745Z,954.8
2023-12-12T11:36:45.267Z,954.62
2023-12-12T11:41:46.572Z,954.59
2023-12-12T11:46:48.519Z,954.42
2023-12-12T11:51:50.080Z,954.5
2023-12-12T11:56:52.261Z,954.55
2023-12-12T12:01:53.808Z,954.48
2023-12-12T12:06:55.314Z,954.42
2023-12-12T12:11:56.658Z,954.3
2023-12-12T12:16:58.581Z,954.27
2023-12-12T12:21:59.948Z,954.13
2023-12-12T12:27:01.174Z,953.98
2023-12-12T12:32:03.303Z,953.85
2023-12-12T12:37:05.020Z,953.64
2023-12-12T12:42:07.020Z,953.65
2023-12-12T12:47:08.453Z,953.44
2023-12-12T12:52:09.945Z,953.21
2023-12-12T12:57:11.672Z,953.15
2023-12-12T13:02:13.710Z,953.07
2023-12-12T13:07:15.623Z,952.91
2023-12-12T13:12:17.446Z,952.84
2023-12-12T13:17:19.182Z,952.73
2023-12-12T13:22:20.663Z,952.66
2023-12-12T13:27:21.843Z,952.73
2023-12-12T13:32:23.678Z,952.83
2023-12-12T13:37:25.665Z,952.74
2023-12-12T13:42:26.832Z,952.65
2023-12-12T13:47:28.402Z,952.48
2023-12-12T13:52:30.071Z,952.41
2023-12-12T13:57:32.244Z,952.37
2023-12-12T14:02:34.498Z,952.33
2023-12-12T14:07:36.207Z,952.38
2023-12-12T14:32:45.194Z,952.21
2023-12-12T14:47:49.277Z,952.23
2023-12-12T15:33:04.312Z,951.2
2023-12-12T15:48:09.916Z,951.14
2023-12-12T16:03:15.272Z,950.85
2023-12-12T16:23:21.476Z,950.72
2023-12-12T17:13:37.934Z,950.45
2023-12-12T17:18:39.484Z,950.31
2023-12-12T17:23:41.376Z,950.13
2023-12-12T17:28:42.722Z,950.03
2023-12-12T17:33:44.327Z,949.88
2023-12-12T17:38:46.100Z,949.86
2023-12-12T17:43:47.945Z,949.75
2023-12-12T17:48:49.891Z,949.93
2023-12-12T17:53:51.925Z,949.96
2023-12-12T17:58:53.467Z,950.06
2023-12-12T18:03:55.472Z,950.37
2023-12-12T18:08:57.398Z,950.48
2023-12-12T18:13:58.649Z,950.52
2023-12-12T18:19:00.540Z,950.51
2023-12-12T18:24:02.440Z,950.49
2023-12-12T18:29:04.405Z,950.52
2023-12-12T18:34:06.602Z,950.5
2023-12-12T18:39:08.553Z,950.54
2023-12-12T18:44:10.395Z,950.58
2023-12-12T18:49:15.073Z,950.55
2023-12-12T18:54:13.760Z,950.57
2023-12-12T18:59:20.888Z,950.61
2023-12-12T19:04:17.756Z,950.59
2023-12-12T19:09:19.489Z,950.52
2023-12-12T19:14:21.156Z,950.48
2023-12-12T19:19:22.519Z,950.44
2023-12-12T19:24:23.847Z,950.39
2023-12-12T19:29:27.355Z,950.34
2023-12-12T19:34:27.266Z,950.26
2023-12-12T19:39:28.934Z,950.14
2023-12-12T19:44:30.752Z,950.06
2023-12-12T19:49:32.655Z,949.98
2023-12-12T19:54:34.504Z,950.1
2023-12-12T19:59:36.213Z,950.03
2023-12-12T20:04:38.394Z,950.25
2023-12-12T20:09:40.514Z,950.19
2023-12-12T20:14:42.220Z,950.1
2023-12-12T20:19:44.370Z,950.05
2023-12-12T20:24:45.945Z,950
2023-12-12T20:29:47.799Z,949.92
2023-12-12T20:34:49.762Z,949.87
2023-12-12T20:39:51.461Z,949.79
2023-12-12T20:44:52.912Z,949.74
2023-12-12T20:49:54.495Z,949.83
2023-12-12T20:54:56.415Z,949.91
2023-12-12T20:59:57.872Z,950.07
2023-12-12T21:04:59.602Z,950.07
2023-12-12T21:10:01.679Z,949.9
2023-12-12T21:15:02.961Z,949.88
2023-12-12T21:20:04.837Z,949.87
2023-12-12T21:25:06.781Z,949.84
2023-12-12T21:30:08.514Z,949.68
2023-12-12T21:35:09.933Z,949.61
2023-12-12T21:40:12.219Z,949.65
2023-12-12T21:45:13.729Z,949.7
2023-12-12T21:50:15.108Z,949.71
2023-12-12T21:55:16.531Z,949.64
2023-12-12T22:00:18.294Z,949.65
2023-12-12T22:05:20.347Z,949.64
2023-12-12T22:10:22.259Z,949.5
2023-12-12T22:15:24.180Z,949.52
2023-12-12T22:20:26.318Z,949.5
2023-12-12T22:25:27.636Z,949.5
2023-12-12T22:30:29.455Z,949.47
2023-12-12T22:35:31.208Z,949.52
2023-12-12T22:40:33.229Z,949.57
2023-12-12T22:45:35.082Z,949.55
2023-12-12T22:50:38.732Z,949.47
2023-12-12T22:55:39.252Z,949.49
2023-12-12T23:00:41.151Z,949.32
2023-12-12T23:05:43.203Z,949.4
2023-12-12T23:10:45.228Z,949.39
2023-12-12T23:15:46.850Z,949.4
2023-12-12T23:20:48.641Z,949.33
2023-12-12T23:25:50.281Z,949.23
2023-12-12T23:30:57.424Z,949.18
2023-12-12T23:35:53.468Z,949.08
2023-12-12T23:41:01.277Z,948.95
2023-12-12T23:46:03.274Z,948.88
2023-12-12T23:51:04.585Z,948.92
2023-12-12T23:56:06.392Z,948.81
